Goodridge, Minnesota
Current Conditions -  °F | °C
As of 5:15 PM on Saturday 25 Oct 2014 (Local Time) from KTVF Reporting Station
Clear Clear  
Wind Chill: 57°   Ceiling: Unl
Heat Index: 57°   Visibility: 10mi
Dew Point: 23°   Wind: 15mph
Humidity: 27%   Direction: 300°WNW
Pressure: 30.03"   Gusts: NA
Location:  48.14°N, 95.81°W
Report Text: KTVF 252215Z AUTO 30013KT 10SM CLR 14/M05 A3003 RMK AO1
Loading
Personal Weather Stations






























Interactive Weather Map
Tropical Storm Tracking
New forecast layout! Learn more

10-Day Weather Forecast

Advertisements
Track Severe Weather on mobile